• Join FlightAware (Why Join?)
  • Login
  • US Flag 
04:17PM EDT


 

Airport Tracker/Info


-or-


 

Live Flight TrackerFlight Track Log ✈ TRS265 ✈ 23-Nov-2013 ✈ KMCO - KMKE

Flight Track Log - Related Links

Times and Time Zones

All times are in EST time to prevent confusion due to time zone crossing. See the TRS265 flight status page for this flight to view local times or setup timezone preferences in your user account.

Time Position Orientation Groundspeed Altitude Reporting Facility
EST Latitude Longitude Course Direction KTS MPH feet Rate Location/Type
10:15AM 28.4167 -81.3000 204° Southwest 175 201 500  Level Orlando TRACON
10:16AM 28.3500 -81.3333 204° Southwest 237 273 2,400 1,980 Climbing Orlando TRACON
10:17AM 28.3333 -81.4000 254° West 279 321 4,600 2,640 Climbing Orlando TRACON
10:19AM 28.3967 -81.4839 311° West 269 310 9,200 2,400 Climbing Jacksonville Center
10:20AM 28.4658 -81.4947 352° North 269 310 11,000 1,380 Climbing Jacksonville Center
10:21AM 28.5661 -81.5028 356° North 311 358 12,100 1,440 Climbing Jacksonville Center
10:22AM 28.6706 -81.5250 349° North 349 402 13,900 1,860 Climbing Jacksonville Center
10:23AM 28.7794 -81.5494 349° North 377 434 15,800 1,860 Climbing Jacksonville Center
10:24AM 28.8986 -81.5811 347° North 392 451 17,700 1,740 Climbing Jacksonville Center
10:25AM 29.0117 -81.6081 348° North 399 459 19,300 1,500 Climbing Jacksonville Center
10:26AM 29.1247 -81.6328 349° North 410 472 20,700 1,260 Climbing Jacksonville Center
10:27AM 29.2333 -81.6600 348° North 423 487 21,900 1,200 Climbing Jacksonville Center
10:28AM 29.3528 -81.6917 347° North 429 494 23,200 1,260 Climbing Jacksonville Center
10:29AM 29.4742 -81.7214 348° North 434 499 24,500 1,260 Climbing Jacksonville Center
10:30AM 29.5975 -81.7483 349° North 440 506 25,800 1,020 Climbing Jacksonville Center
10:31AM 29.7208 -81.7758 349° North 446 513 26,600 960 Climbing Jacksonville Center
10:32AM 29.8486 -81.8053 349° North 458 527 27,800 1,200 Climbing Jacksonville Center
10:33AM 29.9739 -81.8353 348° North 458 527 29,100 1,500 Climbing Jacksonville Center
10:34AM 30.1078 -81.8650 349° North 450 518 30,900 900 Climbing Jacksonville Center
10:35AM 30.2333 -81.8853 352° North 440 506 31,000  Climbing Jacksonville Center
10:36AM 30.3544 -81.9008 354° North 452 520 31,000  Level Jacksonville Center
10:37AM 30.4697 -81.9478 341° North 441 507 31,000  Level Jacksonville Center
10:38AM 30.5869 -81.9997 339° North 441 507 31,000  Level Jacksonville Center
10:39AM 30.7022 -82.0494 340° North 447 514 31,000  Level Jacksonville Center
10:40AM 30.8194 -82.0967 341° North 447 514 31,000  Level Jacksonville Center
10:41AM 30.9344 -82.1442 340° North 442 509 31,000  Level Jacksonville Center
10:42AM 31.0497 -82.1942 340° North 442 509 31,000  Level Jacksonville Center
10:43AM 31.1647 -82.2419 340° North 442 509 31,000  Level Jacksonville Center
10:44AM 31.2819 -82.2922 340° North 442 509 31,000  Level Jacksonville Center
10:45AM 31.3886 -82.3303 343° North 442 509 31,000  Level Jacksonville Center
10:46AM 31.5036 -82.3783 340° North 442 509 31,000  Level Jacksonville Center
10:47AM 31.6208 -82.4267 341° North 442 509 31,000  Level Jacksonville Center
10:48AM 31.7358 -82.4750 340° North 442 509 31,000  Level Jacksonville Center
10:49AM 31.8983 -82.5492 339° North 454 522 31,000  Level Atlanta Center
10:50AM 32.0136 -82.5986 340° North 448 516 31,000 300 Level Atlanta Center
10:51AM 32.1289 -82.6458 341° North 442 509 31,700 480 Climbing Atlanta Center
10:52AM 32.2422 -82.6931 341° North 435 501 32,000 120 Climbing Atlanta Center
10:53AM 32.3556 -82.7431 340° North 435 501 32,000  Level Atlanta Center
10:54AM 32.4708 -82.7931 340° North 430 495 32,000  Level Atlanta Center
10:55AM 32.5797 -82.8408 340° North 430 495 32,000  Level Atlanta Center
10:56AM 32.6889 -82.9011 335° Northwest 424 488 32,000  Level Atlanta Center
10:57AM 32.7958 -82.9639 334° Northwest 424 488 32,000  Level Atlanta Center
10:58AM 32.9031 -83.0219 336° Northwest 424 488 32,000  Level Atlanta Center
10:59AM 33.0078 -83.0828 334° Northwest 419 482 32,000  Level Atlanta Center
11:00AM 33.1253 -83.1483 335° Northwest 419 482 32,000  Level Atlanta Center
11:01AM 33.2342 -83.2069 336° Northwest 424 488 32,000  Level Atlanta Center
11:02AM 33.3389 -83.2681 334° Northwest 424 488 32,000  Level Atlanta Center
11:03AM 33.4478 -83.3292 335° Northwest 424 488 32,000  Level Atlanta Center
11:04AM 33.5567 -83.3856 337° Northwest 424 488 32,000  Level Atlanta Center
11:05AM 33.6633 -83.4472 334° Northwest 419 482 32,000  Level Atlanta Center
11:06AM 33.7700 -83.5064 335° Northwest 425 489 32,000  Level Atlanta Center
11:07AM 33.8683 -83.5611 335° Northwest 419 482 32,000  Level Atlanta Center
11:08AM 33.9731 -83.6231 334° Northwest 420 483 32,000  Level Atlanta Center
11:09AM 34.0775 -83.6803 336° Northwest 420 483 32,000  Level Atlanta Center
11:10AM 34.1822 -83.7400 335° Northwest 414 476 32,000  Level Atlanta Center
11:11AM 34.2867 -83.8000 335° Northwest 414 476 32,000  Level Atlanta Center
11:12AM 34.3889 -83.8600 334° Northwest 414 476 32,000  Level Atlanta Center
11:13AM 34.4956 -83.9153 337° Northwest 408 470 32,000  Level Atlanta Center
11:14AM 34.5997 -83.9758 334° Northwest 408 470 32,000  Level Atlanta Center
11:15AM 34.6958 -84.0414 331° Northwest 401 461 32,000  Level Atlanta Center
11:16AM 34.8022 -84.0994 336° Northwest 401 461 32,000  Level Atlanta Center
11:17AM 34.9067 -84.1628 334° Northwest 406 467 32,000  Level Atlanta Center
11:18AM 35.0089 -84.2214 335° Northwest 406 467 32,000  Level Atlanta Center
11:19AM 35.1108 -84.2825 334° Northwest 406 467 32,000  Level Atlanta Center
11:20AM 35.2172 -84.3439 335° Northwest 406 467 32,000  Level Atlanta Center
11:21AM 35.3214 -84.4053 334° Northwest 406 467 32,000  Level Atlanta Center
11:22AM 35.4233 -84.4669 334° Northwest 406 467 32,000  Level Atlanta Center
11:23AM 35.5294 -84.5286 335° Northwest 406 467 32,000  Level Atlanta Center
11:26AM 35.7700 -84.6711 334° Northwest 405 466 32,000  Level Indianapolis Center
11:27AM 35.8694 -84.7306 334° Northwest 404 465 32,000  Level Indianapolis Center
11:28AM 35.9675 -84.7889 334° Northwest 403 464 32,000  Level Indianapolis Center
11:29AM 36.0858 -84.8606 334° Northwest 401 461 32,000  Level Indianapolis Center
11:30AM 36.1839 -84.9203 334° Northwest 396 456 32,000  Level Indianapolis Center
11:31AM 36.2836 -84.9800 334° Northwest 397 457 32,000  Level Indianapolis Center
11:32AM 36.3822 -85.0406 334° Northwest 397 457 32,000  Level Indianapolis Center
11:33AM 36.4783 -85.1011 333° Northwest 391 450 32,000  Level Indianapolis Center
11:34AM 36.5769 -85.1606 334° Northwest 391 450 32,000  Level Indianapolis Center
11:35AM 36.6814 -85.2086 340° North 398 458 32,000  Level Indianapolis Center
11:36AM 36.8081 -85.2644 341° North 401 461 32,000  Level Indianapolis Center
11:37AM 36.9133 -85.3106 341° North 403 464 32,000  Level Indianapolis Center
11:38AM 37.0194 -85.3569 341° North 403 464 32,000  Level Indianapolis Center
11:39AM 37.1197 -85.4017 340° North 401 461 32,000  Level Indianapolis Center
11:40AM 37.2250 -85.4478 341° North 399 459 32,000  Level Indianapolis Center
11:41AM 37.3297 -85.4933 341° North 397 457 32,000  Level Indianapolis Center
11:42AM 37.4367 -85.5408 341° North 401 461 32,000  Level Indianapolis Center
11:43AM 37.5417 -85.5867 341° North 398 458 32,000  Level Indianapolis Center
11:44AM 37.6453 -85.6339 340° North 396 456 32,000  Level Indianapolis Center
11:45AM 37.7686 -85.6892 340° North 391 450 32,000  Level Indianapolis Center
11:46AM 37.8725 -85.7347 341° North 392 451 32,000  Level Indianapolis Center
11:47AM 37.9744 -85.7800 341° North 388 447 32,000  Level Indianapolis Center
11:48AM 38.0756 -85.8275 340° North 385 443 32,000  Level Indianapolis Center
11:49AM 38.1792 -85.8731 341° North 391 450 32,000  Level Indianapolis Center
11:50AM 38.2811 -85.9189 341° North 389 448 32,000  Level Indianapolis Center
11:51AM 38.3831 -85.9656 340° North 388 447 32,000  Level Indianapolis Center
11:52AM 38.4844 -86.0125 340° North 388 447 32,000  Level Indianapolis Center
11:53AM 38.5869 -86.0586 341° North 391 450 32,000  Level Indianapolis Center
11:54AM 38.7094 -86.1156 340° North 389 448 32,000  Level Indianapolis Center
11:55AM 38.8111 -86.1622 340° North 388 447 32,000  Level Indianapolis Center
11:56AM 38.9114 -86.2086 340° North 388 447 32,000  Level Indianapolis Center
11:57AM 39.0133 -86.2564 340° North 391 450 32,000  Level Indianapolis Center
11:58AM 39.1147 -86.3039 340° North 389 448 32,000  Level Indianapolis Center
11:59AM 39.2167 -86.3503 341° North 389 448 32,000  Level Indianapolis Center
12:00PM 39.3167 -86.3972 340° North 385 443 32,000  Level Indianapolis Center
12:01PM 39.4164 -86.4444 340° North 382 440 32,000  Level Indianapolis Center
12:02PM 39.5156 -86.4906 340° North 379 436 32,000  Level Indianapolis Center
12:03PM 39.6331 -86.5475 340° North 373 429 32,000  Level Indianapolis Center
12:04PM 39.7319 -86.5933 340° North 373 429 32,000  Level Indianapolis Center
12:06PM 39.8289 -86.6397 340° North 370 426 32,000  Level Indianapolis Center
12:07PM 39.9247 -86.6847 340° North 367 422 32,000  Level Indianapolis Center
12:08PM 40.0197 -86.7306 340° North 364 419 32,000  Level Indianapolis Center
12:09PM 40.1072 -86.7881 333° Northwest 353 406 32,000  Level Indianapolis Center
12:10PM 40.1961 -86.8425 335° Northwest 353 406 32,000  Level Indianapolis Center
12:11PM 40.2844 -86.8969 335° Northwest 354 407 32,000  Level Indianapolis Center
12:12PM 40.3889 -86.9639 334° Northwest 348 400 32,000  Level Chicago Center
12:13PM 40.4767 -87.0186 335° Northwest 350 403 32,000  Level Chicago Center
12:14PM 40.5667 -87.0692 337° Northwest 355 409 32,000  Level Chicago Center
12:15PM 40.6747 -87.0839 354° North 389 448 32,000  Level Chicago Center
12:16PM 40.7881 -87.0978 355° North 385 443 32,000  Level Chicago Center
12:17PM 40.8939 -87.1128 354° North 384 442 32,000  Level Chicago Center
12:18PM 40.9978 -87.1264 354° North 380 437 32,000  Level Chicago Center
12:19PM 41.1022 -87.1389 355° North 380 437 32,000 -120 Level Chicago Center
12:20PM 41.2267 -87.1547 355° North 378 435 31,800 -480 Descending Chicago Center
12:21PM 41.3289 -87.1686 354° North 373 429 31,100 -780 Descending Chicago Center
12:22PM 41.4361 -87.1825 354° North 385 443 30,300 -900 Descending Chicago Center
12:23PM 41.5497 -87.1978 354° North 408 470 29,300 -960 Descending Chicago Center
12:24PM 41.6589 -87.2125 354° North 400 460 28,400 -960 Descending Chicago Center
12:25PM 41.7644 -87.2272 354° North 388 447 27,400 -1,080 Descending Chicago Center
12:26PM 41.8694 -87.2400 355° North 384 442 26,300 -1,140 Descending Chicago Center
12:27PM 41.9961 -87.2564 355° North 384 442 25,100 -1,200 Descending Chicago Center
12:28PM 42.1008 -87.2697 355° North 381 438 23,900 -1,560 Descending Chicago Center
12:29PM 42.2000 -87.2825 355° North 364 419 22,000 -2,160 Descending Chicago Center
12:30PM 42.2956 -87.2956 354° North 349 402 19,500 -2,100 Descending Chicago Center
12:31PM 42.3878 -87.3078 354° North 336 387 17,700 -2,280 Descending Chicago Center
12:32PM 42.4767 -87.3203 354° North 330 380 14,900 -2,940 Descending Chicago Center
12:33PM 42.5781 -87.3339 354° North 308 354 11,700 -2,280 Descending Chicago Center
12:34PM 42.6575 -87.3433 355° North 292 336 10,200 -900 Descending Chicago Center
12:35PM 42.7078 -87.3811 331° Northwest 232 267 9,900 -900 Descending Chicago Center
12:36PM 42.7025 -87.4572 265° West 216 249 8,400 -1,440 Descending Chicago Center
12:37PM 42.6922 -87.5375 260° West 216 249 7,000 -1,200 Descending Chicago Center
12:38PM 42.6831 -87.6147 261° West 211 243 6,000 -540 Descending Chicago Center
12:39PM 42.6733 -87.7114 262° West 214 246 6,000 -660 Level Chicago Center
12:40PM 42.6925 -87.7753 292° West 211 243 4,700 -1,380 Descending Chicago Center
12:41PM 42.7361 -87.8136 327° Northwest 192 221 3,200 -1,020 Descending Chicago Center
12:43PM 42.7750 -87.8567 321° Northwest 186 214 2,600 -300 Descending Chicago Center
12:44PM 42.8156 -87.8914 328° Northwest 179 206 2,600 -120 Level Chicago Center
12:45PM 42.8528 -87.9081 342° North 178 205 2,400 -420 Descending Chicago Center
12:46PM 42.8856 -87.9050 North 141 162 1,800 -480 Descending Chicago Center
12:47PM 42.9225 -87.8978 North 132 152 1,500 -300 Descending Chicago Center
12:49PM 42.9333 -87.8833 36° Northeast  Level FlightAware Approximate
12:56PM 42.9469 -87.8971 36° Northeast  Level Estimated